Time;durP1;ratioP1;P1;durP2;ratioP2;P2;SDS_P1;SDS_P2;PMS_P1;PMS_P2;Temp;Humidity;BMP_temperature;BMP_pressure;BME280_temperature;BME280_humidity;BME280_pressure;Samples;Min_cycle;Max_cycle;Signal;HPM_P1;HPM_P2
2021/01/27 00:01:27;;;;;;;13.43;7.37;;;;;;;;;;4946526;28;20386;-77
2021/01/27 00:03:53;;;;;;;14.33;7.20;;;;;;;;;;4930516;29;20986;-77
2021/01/27 00:06:19;;;;;;;14.50;7.63;;;;;;;;;;4946923;29;20306;-78
2021/01/27 00:08:45;;;;;;;14.17;7.87;;;;;;;;;;4929613;29;20283;-78
2021/01/27 00:11:11;;;;;;;14.70;8.30;;;;;;;;;;4946864;29;20267;-78
2021/01/27 00:13:37;;;;;;;13.43;7.57;;;;;;;;;;4947411;29;20836;-77
2021/01/27 00:16:04;;;;;;;14.73;8.03;;;;;;;;;;4946561;29;20277;-77
2021/01/27 00:18:30;;;;;;;14.33;8.53;;;;;;;;;;4930538;29;20287;-77
2021/01/27 00:20:56;;;;;;;17.33;9.10;;;;;;;;;;4932240;29;20287;-78
2021/01/27 00:23:22;;;;;;;12.47;8.07;;;;;;;;;;4946935;29;20799;-77
2021/01/27 00:25:48;;;;;;;17.23;9.23;;;;;;;;;;4946516;29;20327;-77
2021/01/27 00:28:14;;;;;;;15.27;9.27;;;;;;;;;;4946652;29;20271;-77
2021/01/27 00:30:41;;;;;;;16.30;10.57;;;;;;;;;;4945398;28;20334;-79
2021/01/27 00:33:08;;;;;;;16.43;7.97;;;;;;;;;;4946825;29;20268;-77
2021/01/27 00:35:36;;;;;;;16.50;9.20;;;;;;;;;;4929283;29;20306;-77
2021/01/27 00:38:07;;;;;;;16.33;9.37;;;;;;;;;;4948598;28;20294;-77
2021/01/27 00:40:33;;;;;;;15.83;9.60;;;;;;;;;;4927882;29;20342;-78
2021/01/27 00:42:59;;;;;;;15.30;9.80;;;;;;;;;;4946118;29;20287;-77
2021/01/27 00:45:25;;;;;;;19.60;10.83;;;;;;;;;;4946894;29;20268;-77
2021/01/27 00:47:51;;;;;;;19.90;10.47;;;;;;;;;;4931507;29;20311;-76
2021/01/27 00:50:17;;;;;;;15.17;9.67;;;;;;;;;;4946251;28;20353;-78
2021/01/27 00:52:44;;;;;;;17.67;10.57;;;;;;;;;;4932237;29;20283;-76
2021/01/27 00:55:14;;;;;;;18.20;10.73;;;;;;;;;;4931178;29;20419;-77
2021/01/27 00:57:42;;;;;;;16.93;10.00;;;;;;;;;;4945814;29;20272;-78
2021/01/27 01:00:09;;;;;;;14.57;8.67;;;;;;;;;;4946030;28;20315;-77
2021/01/27 01:02:39;;;;;;;16.13;10.47;;;;;;;;;;4946484;29;20275;-78
2021/01/27 01:05:06;;;;;;;14.50;8.87;;;;;;;;;;4931278;29;20363;-78
2021/01/27 01:07:32;;;;;;;18.63;10.17;;;;;;;;;;4950324;28;20282;-77
2021/01/27 01:09:58;;;;;;;18.07;10.33;;;;;;;;;;4929413;29;20280;-78
2021/01/27 01:12:24;;;;;;;18.17;10.33;;;;;;;;;;4945925;29;20268;-78
2021/01/27 01:14:50;;;;;;;19.13;11.27;;;;;;;;;;4931083;29;20276;-78
2021/01/27 01:17:16;;;;;;;18.30;10.87;;;;;;;;;;4934804;29;20282;-78
2021/01/27 01:19:42;;;;;;;19.27;11.43;;;;;;;;;;4949420;28;20378;-78
2021/01/27 01:22:08;;;;;;;20.07;11.30;;;;;;;;;;4933171;29;20290;-78
2021/01/27 01:24:34;;;;;;;17.73;11.13;;;;;;;;;;4949714;29;20290;-78
2021/01/27 01:27:00;;;;;;;20.43;11.60;;;;;;;;;;4950326;28;20279;-77
2021/01/27 01:29:26;;;;;;;16.77;10.30;;;;;;;;;;4949142;28;20288;-78
2021/01/27 01:31:52;;;;;;;24.80;11.87;;;;;;;;;;4950302;29;20278;-78
2021/01/27 01:34:18;;;;;;;22.07;12.30;;;;;;;;;;4935302;29;20783;-78
2021/01/27 01:36:44;;;;;;;20.40;12.27;;;;;;;;;;4934542;29;20276;-78
2021/01/27 01:39:10;;;;;;;19.83;10.93;;;;;;;;;;4931376;29;20287;-78
2021/01/27 01:41:36;;;;;;;21.37;12.40;;;;;;;;;;4933859;29;20348;-78
2021/01/27 01:44:02;;;;;;;18.83;11.67;;;;;;;;;;4934102;29;20335;-78
2021/01/27 01:46:29;;;;;;;19.73;12.17;;;;;;;;;;4933367;29;20284;-78
2021/01/27 01:49:06;;;;;;;18.93;11.10;;;;;;;;;;4932870;29;20289;-78
2021/01/27 01:51:37;;;;;;;20.67;11.60;;;;;;;;;;4935418;29;20772;-78
2021/01/27 01:54:11;;;;;;;18.33;11.60;;;;;;;;;;4949583;29;20334;-78
2021/01/27 01:56:39;;;;;;;18.70;10.47;;;;;;;;;;4949536;29;20279;-79
2021/01/27 01:59:07;;;;;;;20.60;11.27;;;;;;;;;;4944967;28;20287;-78
2021/01/27 02:01:34;;;;;;;22.10;11.93;;;;;;;;;;4948852;29;20334;-78
2021/01/27 02:04:00;;;;;;;23.67;12.03;;;;;;;;;;4948260;29;20307;-79
2021/01/27 02:06:26;;;;;;;17.43;11.50;;;;;;;;;;4948613;29;20276;-79
2021/01/27 02:08:58;;;;;;;22.10;11.97;;;;;;;;;;4945828;28;20280;-79
2021/01/27 02:11:28;;;;;;;20.17;11.20;;;;;;;;;;4948679;29;20687;-79
2021/01/27 02:14:00;;;;;;;21.40;12.50;;;;;;;;;;4934697;29;20665;-79
2021/01/27 02:16:34;;;;;;;21.63;12.80;;;;;;;;;;4934100;29;20271;-79
2021/01/27 02:19:00;;;;;;;19.43;11.83;;;;;;;;;;4933836;29;20287;-79
2021/01/27 02:21:35;;;;;;;21.53;12.20;;;;;;;;;;4949655;29;20283;-77
2021/01/27 02:24:23;;;;;;;19.43;10.73;;;;;;;;;;4950268;28;20658;-78
2021/01/27 02:27:09;;;;;;;15.97;10.10;;;;;;;;;;4932882;29;20296;-79
2021/01/27 02:29:55;;;;;;;17.90;10.87;;;;;;;;;;4945702;28;20327;-79
2021/01/27 02:32:39;;;;;;;19.80;9.77;;;;;;;;;;4933837;29;20263;-79
2021/01/27 02:35:14;;;;;;;23.93;10.77;;;;;;;;;;4934142;29;20255;-77
2021/01/27 02:37:59;;;;;;;24.33;11.43;;;;;;;;;;4930904;29;20273;-79
2021/01/27 02:40:28;;;;;;;16.77;9.90;;;;;;;;;;4947097;28;20320;-79
2021/01/27 02:43:06;;;;;;;22.97;11.67;;;;;;;;;;4947111;29;20264;-80
2021/01/27 02:45:34;;;;;;;19.53;10.90;;;;;;;;;;4948326;29;20271;-79
2021/01/27 02:48:00;;;;;;;23.50;11.97;;;;;;;;;;4947533;29;20283;-78
2021/01/27 02:50:53;;;;;;;17.93;10.70;;;;;;;;;;4947203;28;20287;-79
2021/01/27 02:53:20;;;;;;;19.43;9.93;;;;;;;;;;4926394;29;20271;-79
2021/01/27 02:56:08;;;;;;;15.60;9.50;;;;;;;;;;4947731;29;20279;-79
2021/01/27 02:58:38;;;;;;;19.23;10.40;;;;;;;;;;4932497;29;20328;-79
2021/01/27 03:01:07;;;;;;;21.63;11.37;;;;;;;;;;4948095;29;20291;-78
2021/01/27 03:03:36;;;;;;;19.07;10.60;;;;;;;;;;4950276;29;20314;-80
2021/01/27 03:06:05;;;;;;;15.13;9.83;;;;;;;;;;4933242;29;20263;-79
2021/01/27 03:08:34;;;;;;;17.53;11.03;;;;;;;;;;4934696;29;20966;-79
2021/01/27 03:11:01;;;;;;;18.03;10.20;;;;;;;;;;4935074;29;20331;-79
2021/01/27 03:13:27;;;;;;;15.07;9.20;;;;;;;;;;4948835;29;20335;-79
2021/01/27 03:15:58;;;;;;;17.03;9.97;;;;;;;;;;4948538;29;20274;-80
2021/01/27 03:18:26;;;;;;;15.73;8.93;;;;;;;;;;4948613;28;20275;-79
2021/01/27 03:20:55;;;;;;;16.33;7.70;;;;;;;;;;4951704;28;20300;-79
2021/01/27 03:23:24;;;;;;;17.57;8.60;;;;;;;;;;4954983;29;20757;-79
2021/01/27 03:25:55;;;;;;;19.07;8.00;;;;;;;;;;4951323;29;20322;-79
2021/01/27 03:28:24;;;;;;;19.17;8.57;;;;;;;;;;4948232;29;20271;-80
2021/01/27 03:30:51;;;;;;;14.53;8.00;;;;;;;;;;4960242;28;20342;-79
2021/01/27 03:33:24;;;;;;;21.10;7.73;;;;;;;;;;4927045;29;20280;-79
2021/01/27 03:35:51;;;;;;;12.47;8.33;;;;;;;;;;4949598;29;20303;-80
2021/01/27 03:38:23;;;;;;;17.77;8.90;;;;;;;;;;4933529;29;20275;-79
2021/01/27 03:40:51;;;;;;;18.80;7.80;;;;;;;;;;4949400;28;20299;-79
2021/01/27 03:43:33;;;;;;;17.53;8.97;;;;;;;;;;4943394;29;20603;-79
2021/01/27 03:46:06;;;;;;;14.70;8.13;;;;;;;;;;4941015;28;20784;-79
2021/01/27 03:48:44;;;;;;;16.73;9.48;;;;;;;;;;4947945;29;20673;-77
2021/01/27 03:51:12;;;;;;;24.50;8.70;;;;;;;;;;4949226;29;20382;-80
2021/01/27 03:53:39;;;;;;;15.07;9.00;;;;;;;;;;4950101;29;20748;-79
2021/01/27 03:56:17;;;;;;;18.30;9.77;;;;;;;;;;4949015;29;20275;-78
2021/01/27 03:58:46;;;;;;;17.77;10.27;;;;;;;;;;4954049;28;20374;-80
2021/01/27 04:01:16;;;;;;;22.47;11.10;;;;;;;;;;4950029;28;20291;-80
2021/01/27 04:03:43;;;;;;;18.53;9.20;;;;;;;;;;4933937;29;20760;-80
2021/01/27 04:06:09;;;;;;;18.73;9.77;;;;;;;;;;4931675;29;20302;-80
2021/01/27 04:08:36;;;;;;;19.47;10.50;;;;;;;;;;4932867;29;20086;-77
2021/01/27 04:11:02;;;;;;;18.10;9.97;;;;;;;;;;4937455;29;20282;-79
2021/01/27 04:13:29;;;;;;;19.43;10.77;;;;;;;;;;4948440;28;20276;-79
2021/01/27 04:15:55;;;;;;;19.07;10.77;;;;;;;;;;4933711;29;20283;-80
2021/01/27 04:18:21;;;;;;;23.87;11.43;;;;;;;;;;4944962;29;20354;-80
2021/01/27 04:20:48;;;;;;;21.70;12.10;;;;;;;;;;4942176;28;20291;-78
2021/01/27 04:23:14;;;;;;;17.97;10.87;;;;;;;;;;4935634;29;20401;-80
2021/01/27 04:25:40;;;;;;;25.80;12.60;;;;;;;;;;4948230;29;21196;-79
2021/01/27 04:28:06;;;;;;;21.63;11.57;;;;;;;;;;4948673;29;20327;-80
2021/01/27 04:30:34;;;;;;;18.03;10.33;;;;;;;;;;4947442;28;20330;-80
2021/01/27 04:33:01;;;;;;;20.83;10.87;;;;;;;;;;4951265;29;20402;-80
2021/01/27 04:35:27;;;;;;;17.73;10.13;;;;;;;;;;4946524;29;20318;-80
2021/01/27 04:37:53;;;;;;;25.63;13.00;;;;;;;;;;4941180;28;20769;-81
2021/01/27 04:40:20;;;;;;;18.03;10.80;;;;;;;;;;4947780;28;20649;-80
2021/01/27 04:42:47;;;;;;;21.13;11.80;;;;;;;;;;4930522;29;20304;-80
2021/01/27 04:45:13;;;;;;;18.90;12.93;;;;;;;;;;4945834;29;20295;-80
2021/01/27 04:47:46;;;;;;;21.67;11.00;;;;;;;;;;4929397;29;20284;-79
2021/01/27 04:50:23;;;;;;;21.92;8.88;;;;;;;;;;4924914;29;20327;-80
2021/01/27 04:52:55;;;;;;;19.70;11.27;;;;;;;;;;4949868;29;20028;-80
2021/01/27 04:55:21;;;;;;;18.63;12.00;;;;;;;;;;4949527;29;20364;-80
2021/01/27 04:58:10;;;;;;;16.63;9.90;;;;;;;;;;4948882;29;20286;-80
2021/01/27 05:00:55;;;;;;;22.80;11.17;;;;;;;;;;4924388;29;20291;-80
2021/01/27 05:03:31;;;;;;;19.93;11.40;;;;;;;;;;4949794;29;20688;-80
2021/01/27 05:05:59;;;;;;;21.23;10.73;;;;;;;;;;4933480;29;20263;-80
2021/01/27 05:08:32;;;;;;;16.97;10.30;;;;;;;;;;4948868;29;20291;-80
2021/01/27 05:11:08;;;;;;;22.42;12.88;;;;;;;;;;4950097;29;20271;-80
2021/01/27 05:13:36;;;;;;;21.97;12.13;;;;;;;;;;4933702;29;20091;-80
2021/01/27 05:16:07;;;;;;;27.23;15.27;;;;;;;;;;4933145;29;20355;-80
2021/01/27 05:18:33;;;;;;;26.97;14.10;;;;;;;;;;4932681;29;20785;-80
2021/01/27 05:20:59;;;;;;;21.05;12.68;;;;;;;;;;4950440;29;21103;-80
2021/01/27 05:23:25;;;;;;;20.20;11.33;;;;;;;;;;4934952;29;20019;-80
2021/01/27 05:26:01;;;;;;;22.52;13.52;;;;;;;;;;4934443;29;20271;-80
2021/01/27 05:28:30;;;;;;;21.95;15.02;;;;;;;;;;4932511;29;20023;-80
2021/01/27 05:30:56;;;;;;;24.47;15.80;;;;;;;;;;4949729;29;20032;-80
2021/01/27 05:33:48;;;;;;;24.30;15.40;;;;;;;;;;4933541;29;20263;-80
2021/01/27 05:36:35;;;;;;;24.80;15.73;;;;;;;;;;4934055;29;20272;-79
2021/01/27 05:39:15;;;;;;;25.85;15.52;;;;;;;;;;4953031;28;20774;-79
2021/01/27 05:41:41;;;;;;;27.83;15.43;;;;;;;;;;4961506;28;20031;-80
2021/01/27 05:44:09;;;;;;;21.58;13.30;;;;;;;;;;4933778;29;20773;-80
2021/01/27 05:46:37;;;;;;;28.23;14.05;;;;;;;;;;4949417;29;20371;-80
2021/01/27 05:49:04;;;;;;;21.90;12.45;;;;;;;;;;4954788;28;20031;-79
2021/01/27 05:51:35;;;;;;;19.20;11.13;;;;;;;;;;4949078;28;20043;-78
2021/01/27 05:54:02;;;;;;;18.67;10.07;;;;;;;;;;4933703;29;20267;-79
2021/01/27 05:56:28;;;;;;;14.73;9.50;;;;;;;;;;4949067;29;20267;-80
2021/01/27 05:58:58;;;;;;;14.80;8.48;;;;;;;;;;4952265;28;20283;-80
2021/01/27 06:01:24;;;;;;;13.53;7.80;;;;;;;;;;4948880;28;20028;-80
2021/01/27 06:04:01;;;;;;;17.40;8.50;;;;;;;;;;4936665;29;20358;-79
2021/01/27 06:06:28;;;;;;;18.13;8.43;;;;;;;;;;4935561;29;20265;-80
2021/01/27 06:08:56;;;;;;;16.23;7.70;;;;;;;;;;4949493;28;20283;-78
2021/01/27 06:11:25;;;;;;;14.83;7.53;;;;;;;;;;4948934;28;20286;-80
2021/01/27 06:14:03;;;;;;;17.60;8.00;;;;;;;;;;4950050;29;20268;-80
2021/01/27 06:16:34;;;;;;;18.80;9.87;;;;;;;;;;4949361;29;20406;-80
2021/01/27 06:19:30;;;;;;;24.33;12.40;;;;;;;;;;4933229;29;21340;-80
2021/01/27 06:21:59;;;;;;;39.47;18.47;;;;;;;;;;4936588;29;20387;-79
2021/01/27 06:24:33;;;;;;;25.93;13.37;;;;;;;;;;4934309;29;20698;-79
2021/01/27 06:27:01;;;;;;;29.40;12.97;;;;;;;;;;4948056;28;20350;-79
2021/01/27 06:29:37;;;;;;;43.97;17.23;;;;;;;;;;4962988;28;20295;-79
2021/01/27 06:32:20;;;;;;;45.93;25.50;;;;;;;;;;4947533;29;20292;-80
2021/01/27 06:34:46;;;;;;;21.97;12.43;;;;;;;;;;4947759;29;20275;-79
2021/01/27 06:37:25;;;;;;;20.30;11.90;;;;;;;;;;4935205;29;20360;-79
2021/01/27 06:40:03;;;;;;;13.40;8.50;;;;;;;;;;4930203;29;20666;-79
2021/01/27 06:42:32;;;;;;;10.20;4.70;;;;;;;;;;4933331;29;20782;-79
2021/01/27 06:45:02;;;;;;;10.60;4.93;;;;;;;;;;4948596;29;20299;-77
2021/01/27 06:47:31;;;;;;;11.83;5.37;;;;;;;;;;4931256;29;20287;-78
2021/01/27 06:49:58;;;;;;;11.27;6.10;;;;;;;;;;4934948;29;20811;-78
2021/01/27 06:52:30;;;;;;;11.90;5.70;;;;;;;;;;4949628;29;20279;-78
2021/01/27 06:54:56;;;;;;;10.57;5.70;;;;;;;;;;4946958;28;20294;-79
2021/01/27 06:57:23;;;;;;;11.60;6.67;;;;;;;;;;4951457;28;20339;-78
2021/01/27 06:59:49;;;;;;;15.37;7.90;;;;;;;;;;4941801;28;20373;-78
2021/01/27 07:02:37;;;;;;;12.73;6.87;;;;;;;;;;4945946;28;20379;-78
2021/01/27 07:05:08;;;;;;;10.07;5.63;;;;;;;;;;4950421;29;20275;-78
2021/01/27 07:07:53;;;;;;;10.00;5.00;;;;;;;;;;4934278;29;20307;-78
2021/01/27 07:10:32;;;;;;;11.77;5.63;;;;;;;;;;4949518;28;20538;-78
2021/01/27 07:13:01;;;;;;;12.23;4.77;;;;;;;;;;4951792;28;20323;-79
2021/01/27 07:16:03;;;;;;;10.40;5.07;;;;;;;;;;4940945;29;20331;-78
2021/01/27 07:18:29;;;;;;;10.03;5.17;;;;;;;;;;4913650;29;20303;-78
2021/01/27 07:21:00;;;;;;;12.77;5.47;;;;;;;;;;4943799;28;20324;-78
2021/01/27 07:23:45;;;;;;;12.83;7.00;;;;;;;;;;4934362;29;20290;-77
2021/01/27 07:26:11;;;;;;;17.83;6.43;;;;;;;;;;4936632;29;20327;-77
2021/01/27 07:28:56;;;;;;;14.20;6.30;;;;;;;;;;4933918;29;20295;-78
2021/01/27 07:31:41;;;;;;;14.73;6.53;;;;;;;;;;4951361;29;20763;-79
2021/01/27 07:34:11;;;;;;;14.50;6.40;;;;;;;;;;4934253;29;20713;-78
2021/01/27 07:37:09;;;;;;;12.70;7.30;;;;;;;;;;4941390;29;20949;-79
2021/01/27 07:39:44;;;;;;;15.83;6.53;;;;;;;;;;4956544;28;20283;-79
2021/01/27 07:42:40;;;;;;;14.73;5.80;;;;;;;;;;4956806;29;20301;-80
2021/01/27 07:45:09;;;;;;;14.17;6.23;;;;;;;;;;4950527;28;20299;-80
2021/01/27 07:47:35;;;;;;;14.87;7.57;;;;;;;;;;4936994;29;20288;-79
2021/01/27 07:50:02;;;;;;;15.37;8.27;;;;;;;;;;4938909;29;20299;-80
2021/01/27 07:52:33;;;;;;;14.53;7.10;;;;;;;;;;4937824;29;20273;-78
2021/01/27 07:55:07;;;;;;;13.30;6.50;;;;;;;;;;4936960;29;20263;-80
2021/01/27 07:57:46;;;;;;;15.77;7.30;;;;;;;;;;4937371;29;20298;-78
2021/01/27 08:00:13;;;;;;;13.67;6.30;;;;;;;;;;4952238;29;20390;-79
2021/01/27 08:03:01;;;;;;;10.80;5.30;;;;;;;;;;4954291;29;20318;-79
2021/01/27 08:05:33;;;;;;;13.13;7.13;;;;;;;;;;4938388;29;20263;-80
2021/01/27 08:08:02;;;;;;;15.67;7.20;;;;;;;;;;4937454;29;20282;-79
2021/01/27 08:10:35;;;;;;;11.57;5.40;;;;;;;;;;4936990;29;20274;-80
2021/01/27 08:13:02;;;;;;;10.77;5.68;;;;;;;;;;4936517;29;20807;-79
2021/01/27 08:15:29;;;;;;;14.73;4.43;;;;;;;;;;4948046;28;20032;-79
2021/01/27 08:18:00;;;;;;;11.30;5.97;;;;;;;;;;4948350;29;20279;-79
2021/01/27 08:20:28;;;;;;;13.03;7.90;;;;;;;;;;4955937;28;20323;-79
2021/01/27 08:22:57;;;;;;;16.70;8.93;;;;;;;;;;4949608;29;20276;-78
2021/01/27 08:25:42;;;;;;;18.67;9.00;;;;;;;;;;4951008;28;20305;-78
2021/01/27 08:28:27;;;;;;;15.17;7.73;;;;;;;;;;4955619;29;20271;-80
2021/01/27 08:31:09;;;;;;;14.77;6.70;;;;;;;;;;4957714;28;20271;-80
2021/01/27 08:33:42;;;;;;;15.33;6.87;;;;;;;;;;4974927;29;20287;-79
2021/01/27 08:36:12;;;;;;;21.83;11.07;;;;;;;;;;4975087;28;20283;-79
2021/01/27 08:38:41;;;;;;;13.27;6.53;;;;;;;;;;4974986;28;20287;-80
2021/01/27 08:41:09;;;;;;;11.70;5.93;;;;;;;;;;4975425;28;20287;-81
2021/01/27 08:43:38;;;;;;;11.47;5.33;;;;;;;;;;4975039;28;20272;-81
2021/01/27 08:46:23;;;;;;;12.17;5.50;;;;;;;;;;4975526;28;20283;-81
2021/01/27 08:48:51;;;;;;;12.10;5.60;;;;;;;;;;4960054;28;20275;-81
2021/01/27 08:51:37;;;;;;;11.93;5.13;;;;;;;;;;4960326;28;20272;-80
2021/01/27 08:54:20;;;;;;;7.47;4.07;;;;;;;;;;4975558;28;20274;-79
2021/01/27 08:57:05;;;;;;;7.80;4.15;;;;;;;;;;4956289;28;20279;-80
2021/01/27 08:59:31;;;;;;;11.60;5.63;;;;;;;;;;4953493;28;20020;-80
2021/01/27 09:01:57;;;;;;;7.80;4.60;;;;;;;;;;4969805;28;20331;-80
2021/01/27 09:04:34;;;;;;;11.10;4.70;;;;;;;;;;4970849;28;20279;-79
2021/01/27 09:07:09;;;;;;;13.10;5.13;;;;;;;;;;4963705;29;20270;-80
2021/01/27 09:09:38;;;;;;;11.43;6.17;;;;;;;;;;4964393;28;20299;-80
2021/01/27 09:12:06;;;;;;;10.10;5.03;;;;;;;;;;4959787;29;20430;-80
2021/01/27 09:14:33;;;;;;;12.60;6.13;;;;;;;;;;4960902;29;20795;-81
2021/01/27 09:17:00;;;;;;;9.03;5.03;;;;;;;;;;4969161;29;20294;-80
2021/01/27 09:19:31;;;;;;;11.83;7.03;;;;;;;;;;4954719;28;20355;-80
2021/01/27 09:22:09;;;;;;;10.70;5.93;;;;;;;;;;4969757;28;20333;-81
2021/01/27 09:24:41;;;;;;;11.67;5.80;;;;;;;;;;4959826;29;20287;-81
2021/01/27 09:27:19;;;;;;;9.80;5.70;;;;;;;;;;4975224;28;20284;-80
2021/01/27 09:29:46;;;;;;;10.30;5.63;;;;;;;;;;4958605;28;20292;-79
2021/01/27 09:32:14;;;;;;;9.53;5.63;;;;;;;;;;4975129;28;20272;-81
2021/01/27 09:34:41;;;;;;;14.00;5.87;;;;;;;;;;4975013;28;20351;-80
2021/01/27 09:37:12;;;;;;;13.03;5.83;;;;;;;;;;4976494;28;20299;-80
2021/01/27 09:39:40;;;;;;;11.77;5.60;;;;;;;;;;4976570;28;20286;-80
2021/01/27 09:42:18;;;;;;;10.80;5.50;;;;;;;;;;4975488;28;20335;-80
2021/01/27 09:44:46;;;;;;;13.43;5.87;;;;;;;;;;4975697;28;20331;-81
2021/01/27 09:47:13;;;;;;;11.13;6.33;;;;;;;;;;4976465;28;20311;-80
2021/01/27 09:49:49;;;;;;;17.33;5.90;;;;;;;;;;4971007;28;20288;-80
2021/01/27 09:52:16;;;;;;;10.00;5.27;;;;;;;;;;4984626;28;20282;-81
2021/01/27 09:54:43;;;;;;;11.30;6.20;;;;;;;;;;4973723;28;20406;-81
2021/01/27 09:57:11;;;;;;;12.57;7.47;;;;;;;;;;4973171;28;20283;-80
2021/01/27 09:59:38;;;;;;;11.00;6.63;;;;;;;;;;4972944;28;20284;-80
2021/01/27 10:02:04;;;;;;;10.50;7.50;;;;;;;;;;4964420;28;20450;-81
2021/01/27 10:04:38;;;;;;;16.63;7.70;;;;;;;;;;4955157;29;20279;-80
2021/01/27 10:07:13;;;;;;;11.57;6.90;;;;;;;;;;4938815;29;20276;-81
2021/01/27 10:09:42;;;;;;;10.90;6.43;;;;;;;;;;4968088;28;20290;-81
2021/01/27 10:12:25;;;;;;;23.73;12.70;;;;;;;;;;4955369;29;20264;-81
2021/01/27 10:14:58;;;;;;;12.57;5.73;;;;;;;;;;4953579;29;20350;-78
2021/01/27 10:17:26;;;;;;;11.27;5.88;;;;;;;;;;4938141;29;20263;-79
2021/01/27 10:20:00;;;;;;;9.80;5.50;;;;;;;;;;4951535;29;20156;-80
2021/01/27 10:22:27;;;;;;;8.93;5.53;;;;;;;;;;4958788;28;20653;-79
2021/01/27 10:24:54;;;;;;;11.40;6.77;;;;;;;;;;4945945;29;20307;-79
2021/01/27 10:27:22;;;;;;;21.97;8.97;;;;;;;;;;4953409;29;20272;-79
2021/01/27 10:29:49;;;;;;;12.97;6.50;;;;;;;;;;4936445;29;20280;-79
2021/01/27 10:32:36;;;;;;;9.67;4.60;;;;;;;;;;4937339;29;20884;-79
2021/01/27 10:35:03;;;;;;;9.83;5.50;;;;;;;;;;4935404;29;20292;-80
2021/01/27 10:37:44;;;;;;;16.40;6.63;;;;;;;;;;4952194;29;20295;-79
2021/01/27 10:40:29;;;;;;;10.87;5.03;;;;;;;;;;4951066;28;20292;-80
2021/01/27 10:43:00;;;;;;;9.23;5.17;;;;;;;;;;4951761;28;20275;-80
2021/01/27 10:45:31;;;;;;;8.60;5.33;;;;;;;;;;4953310;29;20307;-80
2021/01/27 10:47:59;;;;;;;11.30;5.77;;;;;;;;;;4938118;29;20351;-81
2021/01/27 10:50:26;;;;;;;8.73;4.20;;;;;;;;;;4935629;29;20378;-81
2021/01/27 10:52:53;;;;;;;7.53;4.57;;;;;;;;;;4934949;29;20275;-80
2021/01/27 10:55:20;;;;;;;8.17;4.73;;;;;;;;;;4937556;29;20383;-79
2021/01/27 10:57:46;;;;;;;9.67;5.60;;;;;;;;;;4952468;29;20869;-80
2021/01/27 11:00:14;;;;;;;12.20;6.30;;;;;;;;;;4946293;29;20295;-79
2021/01/27 11:02:40;;;;;;;10.63;5.87;;;;;;;;;;4964862;28;20279;-79
2021/01/27 11:05:06;;;;;;;9.90;5.37;;;;;;;;;;4938927;29;20260;-79
2021/01/27 11:07:33;;;;;;;7.73;4.87;;;;;;;;;;4973447;28;20295;-79
2021/01/27 11:10:01;;;;;;;6.67;4.03;;;;;;;;;;4961419;28;20287;-81
2021/01/27 11:12:32;;;;;;;7.17;4.50;;;;;;;;;;4964512;29;20276;-80
2021/01/27 11:14:58;;;;;;;7.67;4.53;;;;;;;;;;4958976;29;20359;-80
2021/01/27 11:17:24;;;;;;;7.47;3.90;;;;;;;;;;4953932;29;20278;-80
2021/01/27 11:19:51;;;;;;;7.30;4.00;;;;;;;;;;4946889;28;20323;-81
2021/01/27 11:22:17;;;;;;;8.80;4.40;;;;;;;;;;4940870;29;20268;-80
2021/01/27 11:24:44;;;;;;;8.87;4.53;;;;;;;;;;4960432;29;20356;-81
2021/01/27 11:27:11;;;;;;;11.70;6.73;;;;;;;;;;4950797;29;20710;-78
2021/01/27 11:29:58;;;;;;;11.03;5.70;;;;;;;;;;4948770;28;21001;-79
2021/01/27 11:32:32;;;;;;;16.13;8.40;;;;;;;;;;4948211;29;20283;-79
2021/01/27 11:34:58;;;;;;;17.63;9.05;;;;;;;;;;4946594;29;20287;-78
2021/01/27 11:37:24;;;;;;;12.03;5.87;;;;;;;;;;4934536;29;20079;-78
2021/01/27 11:39:50;;;;;;;9.77;5.33;;;;;;;;;;4938646;29;20327;-78
2021/01/27 11:42:16;;;;;;;8.77;5.57;;;;;;;;;;4934446;29;20279;-79
2021/01/27 11:44:49;;;;;;;10.50;5.40;;;;;;;;;;4949194;29;20702;-79
2021/01/27 11:47:15;;;;;;;10.60;4.43;;;;;;;;;;4933663;29;20295;-78
2021/01/27 11:49:44;;;;;;;10.70;5.10;;;;;;;;;;4941047;29;20310;-78
2021/01/27 11:52:10;;;;;;;9.93;5.23;;;;;;;;;;4948883;28;20330;-78
2021/01/27 11:57:38;;;;;;;9.73;5.67;;;;;;;;;;4926344;29;20268;-78
2021/01/27 12:00:06;;;;;;;9.43;5.53;;;;;;;;;;4941254;28;20272;-78
2021/01/27 12:02:32;;;;;;;12.63;5.97;;;;;;;;;;4949190;29;20263;-78
2021/01/27 12:04:58;;;;;;;11.67;6.53;;;;;;;;;;4948649;29;20291;-78
2021/01/27 12:07:31;;;;;;;9.53;5.90;;;;;;;;;;4949528;28;20279;-78
2021/01/27 12:09:57;;;;;;;10.55;6.70;;;;;;;;;;4954465;28;20287;-79
2021/01/27 12:12:23;;;;;;;10.37;6.03;;;;;;;;;;4953760;28;20509;-79
2021/01/27 12:14:53;;;;;;;9.67;5.03;;;;;;;;;;4957249;28;20279;-79
2021/01/27 12:17:19;;;;;;;9.67;4.53;;;;;;;;;;4951960;28;20272;-79
2021/01/27 12:19:45;;;;;;;10.50;5.27;;;;;;;;;;4932578;29;20888;-80
2021/01/27 12:22:13;;;;;;;8.63;4.37;;;;;;;;;;4943846;29;20350;-80
2021/01/27 12:24:39;;;;;;;9.97;4.90;;;;;;;;;;4949101;28;20366;-80
2021/01/27 12:27:06;;;;;;;11.67;5.00;;;;;;;;;;4948182;29;20288;-81
2021/01/27 12:29:33;;;;;;;11.03;5.20;;;;;;;;;;4950795;28;20292;-80
2021/01/27 12:31:59;;;;;;;8.90;4.40;;;;;;;;;;4949460;29;20275;-79
2021/01/27 12:34:25;;;;;;;6.73;3.57;;;;;;;;;;4932989;29;20290;-80
2021/01/27 12:36:51;;;;;;;8.60;3.90;;;;;;;;;;4947280;29;20283;-80
2021/01/27 12:39:17;;;;;;;7.43;3.40;;;;;;;;;;4947497;28;20310;-79
2021/01/27 12:41:45;;;;;;;7.37;4.57;;;;;;;;;;4952123;29;20299;-81
2021/01/27 12:44:11;;;;;;;11.03;4.53;;;;;;;;;;4954816;28;20279;-81
2021/01/27 12:46:37;;;;;;;8.57;4.40;;;;;;;;;;4938174;29;20284;-80
2021/01/27 12:49:03;;;;;;;9.23;5.10;;;;;;;;;;4953266;28;20299;-81
2021/01/27 12:51:30;;;;;;;11.97;4.87;;;;;;;;;;4957711;29;20306;-81
2021/01/27 12:53:56;;;;;;;11.93;5.67;;;;;;;;;;4955925;28;20302;-79
2021/01/27 12:56:25;;;;;;;18.03;8.67;;;;;;;;;;4949481;29;20283;-79
2021/01/27 12:58:51;;;;;;;9.50;5.27;;;;;;;;;;4929107;29;20276;-80
2021/01/27 13:01:20;;;;;;;7.00;3.83;;;;;;;;;;4949429;29;20825;-81
2021/01/27 13:03:46;;;;;;;10.57;5.07;;;;;;;;;;4948464;28;20031;-79
2021/01/27 13:06:13;;;;;;;8.03;4.30;;;;;;;;;;4944726;28;20035;-80
2021/01/27 13:08:39;;;;;;;6.47;3.17;;;;;;;;;;4934095;29;20114;-79
2021/01/27 13:11:05;;;;;;;9.10;4.53;;;;;;;;;;4935126;29;20044;-79
2021/01/27 13:13:32;;;;;;;6.47;3.20;;;;;;;;;;4950414;28;20070;-80
2021/01/27 13:15:58;;;;;;;5.13;2.53;;;;;;;;;;4950135;29;20750;-80
2021/01/27 13:18:24;;;;;;;4.73;2.47;;;;;;;;;;4935047;29;20130;-80
2021/01/27 13:20:50;;;;;;;5.27;2.13;;;;;;;;;;4948964;28;20052;-80
2021/01/27 13:23:17;;;;;;;5.07;3.03;;;;;;;;;;4933583;29;20036;-81
2021/01/27 13:25:43;;;;;;;5.03;2.73;;;;;;;;;;4939811;29;20062;-81
2021/01/27 13:28:09;;;;;;;7.37;2.47;;;;;;;;;;4953100;28;20035;-78
2021/01/27 13:30:36;;;;;;;5.13;2.47;;;;;;;;;;4936991;29;20122;-81
2021/01/27 13:33:06;;;;;;;5.77;2.57;;;;;;;;;;4934284;29;20123;-79
2021/01/27 13:35:32;;;;;;;6.20;2.30;;;;;;;;;;4948033;28;20088;-80
2021/01/27 13:38:00;;;;;;;6.87;2.07;;;;;;;;;;4949881;28;20039;-77
2021/01/27 13:40:32;;;;;;;4.93;1.93;;;;;;;;;;4929678;29;20039;-77
2021/01/27 13:42:58;;;;;;;4.00;1.90;;;;;;;;;;4946487;29;20020;-78
2021/01/27 13:45:26;;;;;;;6.03;2.57;;;;;;;;;;4947318;29;20119;-79
2021/01/27 13:47:53;;;;;;;6.27;2.40;;;;;;;;;;4931585;29;20035;-77
2021/01/27 13:50:19;;;;;;;4.07;2.00;;;;;;;;;;4949186;28;20041;-79
2021/01/27 13:52:48;;;;;;;4.13;1.90;;;;;;;;;;4951453;29;20038;-80
2021/01/27 13:55:14;;;;;;;3.33;1.50;;;;;;;;;;4933923;29;20122;-78
2021/01/27 13:57:41;;;;;;;2.03;1.20;;;;;;;;;;4947046;28;20043;-79
2021/01/27 14:00:09;;;;;;;4.50;1.40;;;;;;;;;;4930676;29;20031;-79
2021/01/27 14:02:35;;;;;;;2.60;1.10;;;;;;;;;;4948995;29;20449;-79
2021/01/27 14:05:05;;;;;;;3.17;1.30;;;;;;;;;;4935785;29;20051;-81
2021/01/27 14:07:34;;;;;;;3.77;1.53;;;;;;;;;;4948242;28;20035;-79
2021/01/27 14:10:00;;;;;;;2.40;1.10;;;;;;;;;;4941700;28;20028;-79
2021/01/27 14:12:26;;;;;;;2.47;0.90;;;;;;;;;;4932404;29;20055;-80
2021/01/27 14:14:52;;;;;;;3.60;1.43;;;;;;;;;;4945416;28;20032;-80
2021/01/27 14:17:18;;;;;;;2.30;1.30;;;;;;;;;;4950684;29;20027;-80
2021/01/27 14:19:44;;;;;;;4.67;1.87;;;;;;;;;;4933989;29;20118;-78
2021/01/27 14:22:10;;;;;;;5.07;2.63;;;;;;;;;;4954873;28;20295;-78
2021/01/27 14:24:38;;;;;;;7.23;3.83;;;;;;;;;;4936651;29;20358;-79
2021/01/27 14:27:05;;;;;;;5.10;2.60;;;;;;;;;;4937155;29;20325;-78
2021/01/27 14:29:32;;;;;;;4.40;2.30;;;;;;;;;;4951447;28;20291;-80
2021/01/27 14:31:58;;;;;;;7.03;2.73;;;;;;;;;;4950559;29;20757;-78
2021/01/27 14:34:25;;;;;;;8.67;2.70;;;;;;;;;;4948673;28;20301;-80
2021/01/27 14:36:52;;;;;;;11.17;4.97;;;;;;;;;;4934776;29;20279;-78
2021/01/27 14:39:18;;;;;;;12.67;5.53;;;;;;;;;;4950532;28;20287;-81
2021/01/27 14:41:44;;;;;;;9.50;4.07;;;;;;;;;;4952987;29;20288;-78
2021/01/27 14:44:10;;;;;;;4.90;2.40;;;;;;;;;;4955521;28;20276;-82
2021/01/27 14:46:36;;;;;;;6.97;2.77;;;;;;;;;;4951389;29;20280;-80
2021/01/27 14:49:02;;;;;;;5.30;2.00;;;;;;;;;;4950473;28;20292;-79